Skadi — V2QR2 — position and weather

sailwx.info

Track history (hours):
 
Tides and Currents Weather Stations Pressure Air Temp Water Temp Dewpoint Dewpoint Depression Visibility Wind Speed Wind Dir Waves Ship Positions

Skadi

Last reported at 2017-Dec-11 02:14 UTC. Time now 2017-Dec-13 01:42 UTC.
Position N 38°03' W 000°06'.

Length 142 m; draft 8.2 m.

Type: Cargo ship. MMSI: 305049000.

Date/timePositionNaut miles runAvg speedWind from/ knotsBaromVisibWave heightAir tempDewpointWater temp
2017-Dec-11 02:14N 38°03' W 000°06'2211.8
2017-Dec-11 00:23N 37°45' W 000°21'411.6
2017-Dec-11 00:00N 37°41' W 000°24'611.4
2017-Dec-10 23:30N 37°37' W 000°28'611.1
2017-Dec-10 23:00N 37°32' W 000°33'711.1
2017-Dec-10 22:23N 37°28' W 000°39'911.0
2017-Dec-10 21:35N 37°22' W 000°47'110.7
2017-Dec-10 21:30N 37°21' W 000°48'510.7
2017-Dec-10 21:00N 37°18' W 000°53'510.7
2017-Dec-10 20:30N 37°14' W 000°58'436 9.2
2017-Dec-08 21:13N 38°16' W 010°04'511.8
2017-Dec-08 20:46N 38°22' W 010°05'511.5
2017-Dec-08 20:20N 38°26' W 010°07'411.4
2017-Dec-08 20:00N 38°30' W 010°08'611.7
2017-Dec-08 19:27N 38°36' W 010°10'511.3
2017-Dec-08 19:00N 38°41' W 010°11'611.3
2017-Dec-08 18:30N 38°47' W 010°11'611.3
2017-Dec-08 18:00N 38°53' W 010°11'5 9.4
2017-Dec-08 17:30N 38°57' W 010°11'4 7.3
2017-Dec-08 17:00N 39°01' W 010°11'4 7.8
2017-Dec-08 16:30N 39°05' W 010°11'4 7.8
2017-Dec-08 16:00N 39°09' W 010°11'4 7.5
2017-Dec-08 15:30N 39°12' W 010°11'4 8.0
2017-Dec-08 15:00N 39°16' W 010°11'  
2017-Dec-03 03:51N 57°22' E 008°55'3 9.3
2017-Dec-03 03:29N 57°24' E 008°60'4 9.3
2017-Dec-03 03:00N 57°27' E 009°07'5 9.3
2017-Dec-03 02:30N 57°29' E 009°14'5 9.3
2017-Dec-03 01:59N 57°31' E 009°22'31 9.2
2017-Dec-02 22:36N 57°46' E 010°14'6 9.5
2017-Dec-02 21:56N 57°48' E 010°25'4 9.9
2017-Dec-02 21:30N 57°49' E 010°33'5 9.8
2017-Dec-02 21:01N 57°49' E 010°42'5 9.8
2017-Dec-02 20:30N 57°46' E 010°50'511.0
2017-Dec-02 20:00N 57°42' E 010°57'611.5
2017-Dec-02 19:30N 57°38' E 011°05'611.5
2017-Dec-02 19:01N 57°34' E 011°13'611.4
2017-Dec-02 18:30N 57°31' E 011°21'611.3
2017-Dec-02 18:00N 57°26' E 011°27'611.4
2017-Dec-02 17:30N 57°21' E 011°30'611.7
2017-Dec-02 17:01N 57°15' E 011°34'611.8
2017-Dec-02 16:30N 57°09' E 011°38'11410.8
2017-Dec-02 05:57N 55°18' E 011°03'512.2
2017-Dec-02 05:30N 55°12' E 011°06'712.4
2017-Dec-02 04:57N 55°06' E 011°03'612.7
2017-Dec-02 04:31N 55°00' E 011°02'612.5
2017-Dec-02 04:00N 54°55' E 010°55'612.7
2017-Dec-02 03:30N 54°49' E 010°52'612.1
2017-Dec-02 03:01N 54°43' E 010°53'510.9
2017-Dec-02 02:30N 54°40' E 011°00'611.4
2017-Dec-02 02:00N 54°37' E 011°09'611.6
2017-Dec-02 01:30N 54°34' E 011°18'611.9
2017-Dec-02 01:00N 54°32' E 011°27'611.9
2017-Dec-02 00:30N 54°29' E 011°37'611.8
2017-Dec-02 00:00N 54°27' E 011°46'611.5
2017-Dec-01 23:30N 54°27' E 011°56'8511.2
2017-Dec-01 15:52N 55°07' E 014°06'512.1
2017-Dec-01 15:28N 55°11' E 014°12'612.4
2017-Dec-01 14:58N 55°15' E 014°19'612.5
2017-Dec-01 14:30N 55°20' E 014°25'612.2
2017-Dec-01 14:00N 55°25' E 014°32'712.0
2017-Dec-01 13:27N 55°29' E 014°41'812.0
2017-Dec-01 12:49N 55°33' E 014°53'411.9
2017-Dec-01 12:30N 55°34' E 014°59'1012.1
2017-Dec-01 11:41N 55°39' E 015°14'212.2
2017-Dec-01 11:30N 55°40' E 015°17'612.1
2017-Dec-01 11:01N 55°43' E 015°27'612.0
2017-Dec-01 10:31N 55°46' E 015°36'611.9
2017-Dec-01 10:00N 55°49' E 015°45'611.8
2017-Dec-01 09:31N 55°52' E 015°54'612.0
2017-Dec-01 09:00N 55°55' E 016°03'612.1
2017-Dec-01 08:31N 55°58' E 016°13'612.3
2017-Dec-01 08:00N 56°01' E 016°22'612.4
2017-Dec-01 07:30N 56°05' E 016°32'612.3
2017-Dec-01 07:00N 56°08' E 016°41'  
Track history (hours):
 
Tides and Currents Weather Stations Pressure Air Temp Water Temp Dewpoint Dewpoint Depression Visibility Wind Speed Wind Dir Waves Ship Positions

Skadi

Last reported at 2017-Dec-11 02:14 UTC. Time now 2017-Dec-13 01:42 UTC.
Position N 38°03' W 000°06'.

Length 142 m; draft 8.2 m.

Type: Cargo ship. MMSI: 305049000.

Date/timePositionNaut miles runAvg speedWind from/ knotsBaromVisibWave heightAir tempDewpointWater temp
2017-Dec-11 02:14N 38°03' W 000°06'2211.8
2017-Dec-11 00:23N 37°45' W 000°21'411.6
2017-Dec-11 00:00N 37°41' W 000°24'611.4
2017-Dec-10 23:30N 37°37' W 000°28'611.1
2017-Dec-10 23:00N 37°32' W 000°33'711.1
2017-Dec-10 22:23N 37°28' W 000°39'911.0
2017-Dec-10 21:35N 37°22' W 000°47'110.7
2017-Dec-10 21:30N 37°21' W 000°48'510.7
2017-Dec-10 21:00N 37°18' W 000°53'510.7
2017-Dec-10 20:30N 37°14' W 000°58'436 9.2
2017-Dec-08 21:13N 38°16' W 010°04'511.8
2017-Dec-08 20:46N 38°22' W 010°05'511.5
2017-Dec-08 20:20N 38°26' W 010°07'411.4
2017-Dec-08 20:00N 38°30' W 010°08'611.7
2017-Dec-08 19:27N 38°36' W 010°10'511.3
2017-Dec-08 19:00N 38°41' W 010°11'611.3
2017-Dec-08 18:30N 38°47' W 010°11'611.3
2017-Dec-08 18:00N 38°53' W 010°11'5 9.4
2017-Dec-08 17:30N 38°57' W 010°11'4 7.3
2017-Dec-08 17:00N 39°01' W 010°11'4 7.8
2017-Dec-08 16:30N 39°05' W 010°11'4 7.8
2017-Dec-08 16:00N 39°09' W 010°11'4 7.5
2017-Dec-08 15:30N 39°12' W 010°11'4 8.0
2017-Dec-08 15:00N 39°16' W 010°11'  
2017-Dec-03 03:51N 57°22' E 008°55'3 9.3
2017-Dec-03 03:29N 57°24' E 008°60'4 9.3
2017-Dec-03 03:00N 57°27' E 009°07'5 9.3
2017-Dec-03 02:30N 57°29' E 009°14'5 9.3
2017-Dec-03 01:59N 57°31' E 009°22'31 9.2
2017-Dec-02 22:36N 57°46' E 010°14'6 9.5
2017-Dec-02 21:56N 57°48' E 010°25'4 9.9
2017-Dec-02 21:30N 57°49' E 010°33'5 9.8
2017-Dec-02 21:01N 57°49' E 010°42'5 9.8
2017-Dec-02 20:30N 57°46' E 010°50'511.0
2017-Dec-02 20:00N 57°42' E 010°57'611.5
2017-Dec-02 19:30N 57°38' E 011°05'611.5
2017-Dec-02 19:01N 57°34' E 011°13'611.4
2017-Dec-02 18:30N 57°31' E 011°21'611.3
2017-Dec-02 18:00N 57°26' E 011°27'611.4
2017-Dec-02 17:30N 57°21' E 011°30'611.7
2017-Dec-02 17:01N 57°15' E 011°34'611.8
2017-Dec-02 16:30N 57°09' E 011°38'11410.8
2017-Dec-02 05:57N 55°18' E 011°03'512.2
2017-Dec-02 05:30N 55°12' E 011°06'712.4
2017-Dec-02 04:57N 55°06' E 011°03'612.7
2017-Dec-02 04:31N 55°00' E 011°02'612.5
2017-Dec-02 04:00N 54°55' E 010°55'612.7
2017-Dec-02 03:30N 54°49' E 010°52'612.1
2017-Dec-02 03:01N 54°43' E 010°53'510.9
2017-Dec-02 02:30N 54°40' E 011°00'611.4
2017-Dec-02 02:00N 54°37' E 011°09'611.6
2017-Dec-02 01:30N 54°34' E 011°18'611.9
2017-Dec-02 01:00N 54°32' E 011°27'611.9
2017-Dec-02 00:30N 54°29' E 011°37'611.8
2017-Dec-02 00:00N 54°27' E 011°46'611.5
2017-Dec-01 23:30N 54°27' E 011°56'8511.2
2017-Dec-01 15:52N 55°07' E 014°06'512.1
2017-Dec-01 15:28N 55°11' E 014°12'612.4
2017-Dec-01 14:58N 55°15' E 014°19'612.5
2017-Dec-01 14:30N 55°20' E 014°25'612.2
2017-Dec-01 14:00N 55°25' E 014°32'712.0
2017-Dec-01 13:27N 55°29' E 014°41'812.0
2017-Dec-01 12:49N 55°33' E 014°53'411.9
2017-Dec-01 12:30N 55°34' E 014°59'1012.1
2017-Dec-01 11:41N 55°39' E 015°14'212.2
2017-Dec-01 11:30N 55°40' E 015°17'612.1
2017-Dec-01 11:01N 55°43' E 015°27'612.0
2017-Dec-01 10:31N 55°46' E 015°36'611.9
2017-Dec-01 10:00N 55°49' E 015°45'611.8
2017-Dec-01 09:31N 55°52' E 015°54'612.0
2017-Dec-01 09:00N 55°55' E 016°03'612.1
2017-Dec-01 08:31N 55°58' E 016°13'612.3
2017-Dec-01 08:00N 56°01' E 016°22'612.4
2017-Dec-01 07:30N 56°05' E 016°32'612.3
2017-Dec-01 07:00N 56°08' E 016°41'  

Dump ship's entire track history